sensor_id;sensor_type;location;lat;lon;timestamp;pressure;altitude;pressure_sealevel;temperature;humidity
55271;BME280;41132;47.162;9.470;2023-02-17T00:02:12;97590.22;;;4.70;100.00
55271;BME280;41132;47.162;9.470;2023-02-17T00:04:39;97588.19;;;4.75;99.63
55271;BME280;41132;47.162;9.470;2023-02-17T00:07:05;97594.59;;;4.69;100.00
55271;BME280;41132;47.162;9.470;2023-02-17T00:09:30;97585.88;;;4.70;99.21
55271;BME280;41132;47.162;9.470;2023-02-17T00:11:55;97580.47;;;4.88;97.71
55271;BME280;41132;47.162;9.470;2023-02-17T00:14:21;97583.38;;;4.97;94.33
55271;BME280;41132;47.162;9.470;2023-02-17T00:16:46;97577.41;;;4.95;92.74
55271;BME280;41132;47.162;9.470;2023-02-17T00:19:12;97581.22;;;4.90;93.24
55271;BME280;41132;47.162;9.470;2023-02-17T00:21:55;97577.97;;;4.72;96.16
55271;BME280;41132;47.162;9.470;2023-02-17T00:24:22;97572.75;;;4.72;96.65
55271;BME280;41132;47.162;9.470;2023-02-17T00:26:47;97577.78;;;4.75;96.96
55271;BME280;41132;47.162;9.470;2023-02-17T00:29:13;97589.94;;;4.74;98.75
55271;BME280;41132;47.162;9.470;2023-02-17T00:31:39;97589.13;;;4.74;98.30
55271;BME280;41132;47.162;9.470;2023-02-17T00:34:04;97595.25;;;4.73;96.51
55271;BME280;41132;47.162;9.470;2023-02-17T00:36:30;97593.56;;;4.57;99.08
55271;BME280;41132;47.162;9.470;2023-02-17T00:38:56;97598.28;;;4.65;98.33
55271;BME280;41132;47.162;9.470;2023-02-17T00:41:22;97597.94;;;4.57;99.22
55271;BME280;41132;47.162;9.470;2023-02-17T00:43:48;97613.91;;;4.65;97.03
55271;BME280;41132;47.162;9.470;2023-02-17T00:48:47;97604.81;;;4.58;99.13
55271;BME280;41132;47.162;9.470;2023-02-17T00:56:18;97604.25;;;4.53;99.10
55271;BME280;41132;47.162;9.470;2023-02-17T00:58:43;97614.56;;;4.69;94.52
55271;BME280;41132;47.162;9.470;2023-02-17T01:01:10;97609.63;;;4.78;94.54
55271;BME280;41132;47.162;9.470;2023-02-17T01:03:36;97610.88;;;4.73;98.07
55271;BME280;41132;47.162;9.470;2023-02-17T01:06:06;97611.50;;;4.76;97.70
55271;BME280;41132;47.162;9.470;2023-02-17T01:08:33;97622.25;;;4.56;100.00
55271;BME280;41132;47.162;9.470;2023-02-17T01:10:58;97620.69;;;4.68;99.55
55271;BME280;41132;47.162;9.470;2023-02-17T01:13:24;97632.28;;;4.62;100.00
55271;BME280;41132;47.162;9.470;2023-02-17T01:15:51;97625.31;;;4.63;99.99
55271;BME280;41132;47.162;9.470;2023-02-17T01:18:19;97637.03;;;4.70;99.07
55271;BME280;41132;47.162;9.470;2023-02-17T01:20:45;97630.63;;;4.75;97.58
55271;BME280;41132;47.162;9.470;2023-02-17T01:23:11;97622.47;;;4.81;95.94
55271;BME280;41132;47.162;9.470;2023-02-17T01:25:43;97626.00;;;4.80;97.64
55271;BME280;41132;47.162;9.470;2023-02-17T01:28:14;97623.75;;;4.74;98.27
55271;BME280;41132;47.162;9.470;2023-02-17T01:30:39;97619.50;;;4.73;98.16
55271;BME280;41132;47.162;9.470;2023-02-17T01:33:05;97619.13;;;4.79;94.64
55271;BME280;41132;47.162;9.470;2023-02-17T01:35:32;97625.53;;;4.74;97.86
55271;BME280;41132;47.162;9.470;2023-02-17T01:37:58;97612.72;;;4.71;99.61
55271;BME280;41132;47.162;9.470;2023-02-17T01:40:23;97605.25;;;4.79;98.19
55271;BME280;41132;47.162;9.470;2023-02-17T01:42:48;97611.59;;;4.75;99.68
55271;BME280;41132;47.162;9.470;2023-02-17T01:50:09;97603.13;;;4.71;100.00
55271;BME280;41132;47.162;9.470;2023-02-17T01:52:35;97606.00;;;4.67;100.00
55271;BME280;41132;47.162;9.470;2023-02-17T01:55:05;97592.06;;;4.39;100.00
55271;BME280;41132;47.162;9.470;2023-02-17T01:57:34;97601.84;;;4.50;100.00
55271;BME280;41132;47.162;9.470;2023-02-17T02:00:02;97592.91;;;4.54;100.00
55271;BME280;41132;47.162;9.470;2023-02-17T02:02:28;97593.66;;;4.56;99.25
55271;BME280;41132;47.162;9.470;2023-02-17T02:04:55;97599.88;;;4.68;99.80
55271;BME280;41132;47.162;9.470;2023-02-17T02:07:27;97595.53;;;4.68;100.00
55271;BME280;41132;47.162;9.470;2023-02-17T02:09:55;97586.88;;;4.68;96.69
55271;BME280;41132;47.162;9.470;2023-02-17T02:14:51;97579.25;;;4.79;95.96
55271;BME280;41132;47.162;9.470;2023-02-17T02:17:55;97585.31;;;4.94;89.93
55271;BME280;41132;47.162;9.470;2023-02-17T02:20:48;97573.22;;;5.07;87.99
55271;BME280;41132;47.162;9.470;2023-02-17T02:23:44;97582.97;;;5.18;88.88
55271;BME280;41132;47.162;9.470;2023-02-17T02:32:17;97578.38;;;5.21;88.45
55271;BME280;41132;47.162;9.470;2023-02-17T02:35:12;97576.31;;;5.27;90.56
55271;BME280;41132;47.162;9.470;2023-02-17T02:38:05;97573.84;;;5.11;93.45
55271;BME280;41132;47.162;9.470;2023-02-17T02:40:40;97570.88;;;5.17;92.41
55271;BME280;41132;47.162;9.470;2023-02-17T02:43:06;97577.31;;;5.11;90.16
55271;BME280;41132;47.162;9.470;2023-02-17T02:45:32;97568.91;;;5.20;88.62
55271;BME280;41132;47.162;9.470;2023-02-17T02:47:59;97568.72;;;5.23;88.44
55271;BME280;41132;47.162;9.470;2023-02-17T03:04:10;97565.47;;;5.20;91.00
55271;BME280;41132;47.162;9.470;2023-02-17T03:06:47;97576.72;;;5.20;91.91
55271;BME280;41132;47.162;9.470;2023-02-17T03:09:20;97570.13;;;5.15;90.91
55271;BME280;41132;47.162;9.470;2023-02-17T03:11:47;97583.34;;;5.12;90.41
55271;BME280;41132;47.162;9.470;2023-02-17T03:14:16;97579.34;;;5.06;93.10
55271;BME280;41132;47.162;9.470;2023-02-17T03:16:41;97567.94;;;5.09;95.31
55271;BME280;41132;47.162;9.470;2023-02-17T03:19:08;97568.47;;;5.14;91.63
55271;BME280;41132;47.162;9.470;2023-02-17T03:21:38;97569.50;;;5.11;92.85
55271;BME280;41132;47.162;9.470;2023-02-17T03:24:05;97573.56;;;5.15;92.15
55271;BME280;41132;47.162;9.470;2023-02-17T03:26:31;97578.34;;;5.09;95.14
55271;BME280;41132;47.162;9.470;2023-02-17T03:28:56;97579.63;;;5.01;96.77
55271;BME280;41132;47.162;9.470;2023-02-17T03:31:22;97568.28;;;5.02;97.53
55271;BME280;41132;47.162;9.470;2023-02-17T03:33:48;97576.66;;;4.93;98.05
55271;BME280;41132;47.162;9.470;2023-02-17T03:36:14;97574.03;;;5.08;93.52
55271;BME280;41132;47.162;9.470;2023-02-17T03:38:39;97571.06;;;5.14;92.96
55271;BME280;41132;47.162;9.470;2023-02-17T03:41:05;97575.88;;;5.20;92.80
55271;BME280;41132;47.162;9.470;2023-02-17T03:43:30;97575.88;;;5.20;92.81
55271;BME280;41132;47.162;9.470;2023-02-17T03:45:55;97571.69;;;5.17;91.64
55271;BME280;41132;47.162;9.470;2023-02-17T03:48:21;97563.50;;;5.23;92.68
55271;BME280;41132;47.162;9.470;2023-02-17T03:50:46;97560.00;;;5.10;95.78
55271;BME280;41132;47.162;9.470;2023-02-17T03:53:12;97556.19;;;5.16;94.12
55271;BME280;41132;47.162;9.470;2023-02-17T03:55:37;97544.84;;;5.17;92.07
55271;BME280;41132;47.162;9.470;2023-02-17T03:58:03;97553.19;;;5.22;92.14
55271;BME280;41132;47.162;9.470;2023-02-17T04:00:28;97549.59;;;5.25;91.64
55271;BME280;41132;47.162;9.470;2023-02-17T04:02:54;97551.81;;;5.16;95.22
55271;BME280;41132;47.162;9.470;2023-02-17T04:05:21;97547.00;;;5.10;92.39
55271;BME280;41132;47.162;9.470;2023-02-17T04:07:47;97556.06;;;5.17;90.90
55271;BME280;41132;47.162;9.470;2023-02-17T04:10:12;97546.97;;;5.25;85.92
55271;BME280;41132;47.162;9.470;2023-02-17T04:12:38;97565.19;;;5.25;90.40
55271;BME280;41132;47.162;9.470;2023-02-17T04:15:03;97556.19;;;5.16;91.59
55271;BME280;41132;47.162;9.470;2023-02-17T04:17:29;97552.34;;;5.21;90.95
55271;BME280;41132;47.162;9.470;2023-02-17T04:19:54;97558.97;;;5.27;91.87
55271;BME280;41132;47.162;9.470;2023-02-17T04:22:20;97560.00;;;5.25;90.36
55271;BME280;41132;47.162;9.470;2023-02-17T04:24:45;97556.06;;;5.17;93.30
55271;BME280;41132;47.162;9.470;2023-02-17T04:27:10;97563.50;;;5.23;93.22
55271;BME280;41132;47.162;9.470;2023-02-17T04:29:36;97559.41;;;5.19;93.27
55271;BME280;41132;47.162;9.470;2023-02-17T04:32:01;97551.06;;;5.14;92.59
55271;BME280;41132;47.162;9.470;2023-02-17T04:34:26;97561.19;;;5.19;90.47
55271;BME280;41132;47.162;9.470;2023-02-17T04:36:52;97556.53;;;5.24;89.84
55271;BME280;41132;47.162;9.470;2023-02-17T04:39:17;97559.41;;;5.19;87.49
55271;BME280;41132;47.162;9.470;2023-02-17T04:41:43;97552.91;;;5.27;85.39
55271;BME280;41132;47.162;9.470;2023-02-17T04:44:08;97549.84;;;5.20;83.83
55271;BME280;41132;47.162;9.470;2023-02-17T04:46:33;97556.59;;;5.37;82.80
55271;BME280;41132;47.162;9.470;2023-02-17T04:48:59;97559.88;;;5.26;85.72
55271;BME280;41132;47.162;9.470;2023-02-17T04:51:24;97561.16;;;5.33;82.88
55271;BME280;41132;47.162;9.470;2023-02-17T04:53:50;97554.09;;;5.35;84.05
55271;BME280;41132;47.162;9.470;2023-02-17T04:56:15;97554.09;;;5.35;85.01
55271;BME280;41132;47.162;9.470;2023-02-17T04:58:40;97557.72;;;5.33;85.30
55271;BME280;41132;47.162;9.470;2023-02-17T05:01:06;97564.25;;;5.26;87.78
55271;BME280;41132;47.162;9.470;2023-02-17T05:03:31;97558.97;;;5.27;86.98
55271;BME280;41132;47.162;9.470;2023-02-17T05:05:56;97572.59;;;5.31;84.51
55271;BME280;41132;47.162;9.470;2023-02-17T05:08:22;97571.13;;;5.27;87.24
55271;BME280;41132;47.162;9.470;2023-02-17T05:10:49;97579.38;;;5.33;86.62
55271;BME280;41132;47.162;9.470;2023-02-17T05:13:15;97571.97;;;5.27;88.25
55271;BME280;41132;47.162;9.470;2023-02-17T05:15:42;97567.34;;;5.18;91.75
55271;BME280;41132;47.162;9.470;2023-02-17T05:18:07;97557.81;;;5.31;89.39
55271;BME280;41132;47.162;9.470;2023-02-17T05:20:33;97561.75;;;5.24;88.44
55271;BME280;41132;47.162;9.470;2023-02-17T05:22:58;97569.66;;;5.22;90.28
55271;BME280;41132;47.162;9.470;2023-02-17T05:25:23;97568.72;;;5.23;90.37
55271;BME280;41132;47.162;9.470;2023-02-17T05:27:49;97565.28;;;5.23;90.12
55271;BME280;41132;47.162;9.470;2023-02-17T05:30:14;97575.69;;;5.23;90.70
55271;BME280;41132;47.162;9.470;2023-02-17T05:32:40;97559.25;;;5.22;90.58
55271;BME280;41132;47.162;9.470;2023-02-17T05:35:05;97551.44;;;5.22;90.20
55271;BME280;41132;47.162;9.470;2023-02-17T05:37:31;97554.91;;;5.36;89.66
55271;BME280;41132;47.162;9.470;2023-02-17T05:39:56;97541.47;;;5.29;89.25
55271;BME280;41132;47.162;9.470;2023-02-17T05:42:22;97549.72;;;5.36;89.00
55271;BME280;41132;47.162;9.470;2023-02-17T05:44:47;97551.59;;;5.34;88.82
55271;BME280;41132;47.162;9.470;2023-02-17T05:47:12;97542.09;;;5.33;87.31
55271;BME280;41132;47.162;9.470;2023-02-17T05:49:38;97553.06;;;5.38;87.95
55271;BME280;41132;47.162;9.470;2023-02-17T05:52:03;97548.25;;;5.32;87.04
55271;BME280;41132;47.162;9.470;2023-02-17T05:54:29;97549.59;;;5.25;91.02
55271;BME280;41132;47.162;9.470;2023-02-17T05:56:54;97554.59;;;5.28;88.13
55271;BME280;41132;47.162;9.470;2023-02-17T05:59:20;97550.94;;;5.30;90.51
55271;BME280;41132;47.162;9.470;2023-02-17T06:01:45;97563.50;;;5.23;92.01
55271;BME280;41132;47.162;9.470;2023-02-17T06:04:10;97557.84;;;5.17;92.97
55271;BME280;41132;47.162;9.470;2023-02-17T06:06:36;97557.03;;;5.16;93.26
55271;BME280;41132;47.162;9.470;2023-02-17T06:09:02;97557.75;;;5.18;93.00
55271;BME280;41132;47.162;9.470;2023-02-17T06:11:27;97559.25;;;5.22;89.86
55271;BME280;41132;47.162;9.470;2023-02-17T06:13:53;97556.72;;;5.21;92.46
55271;BME280;41132;47.162;9.470;2023-02-17T06:16:18;97563.91;;;5.03;94.79
55271;BME280;41132;47.162;9.470;2023-02-17T06:18:43;97563.84;;;5.05;93.00
55271;BME280;41132;47.162;9.470;2023-02-17T06:21:09;97563.09;;;4.88;93.15
55271;BME280;41132;47.162;9.470;2023-02-17T06:23:34;97565.31;;;4.94;92.06
55271;BME280;41132;47.162;9.470;2023-02-17T06:25:59;97567.28;;;4.91;92.43
55271;BME280;41132;47.162;9.470;2023-02-17T06:28:25;97562.59;;;5.10;89.64
55271;BME280;41132;47.162;9.470;2023-02-17T06:30:50;97569.22;;;5.16;90.24
55271;BME280;41132;47.162;9.470;2023-02-17T06:33:15;97575.53;;;5.12;92.79
55271;BME280;41132;47.162;9.470;2023-02-17T06:35:41;97571.25;;;5.11;92.50
55271;BME280;41132;47.162;9.470;2023-02-17T06:38:08;97573.09;;;5.23;88.63
55271;BME280;41132;47.162;9.470;2023-02-17T06:40:33;97570.88;;;5.17;90.86
55271;BME280;41132;47.162;9.470;2023-02-17T06:42:59;97584.41;;;5.22;90.43
55271;BME280;41132;47.162;9.470;2023-02-17T06:45:24;97563.16;;;5.15;92.96
55271;BME280;41132;47.162;9.470;2023-02-17T06:47:49;97556.94;;;5.18;93.27
55271;BME280;41132;47.162;9.470;2023-02-17T06:50:15;97553.59;;;5.16;93.78
55271;BME280;41132;47.162;9.470;2023-02-17T06:52:41;97572.84;;;5.40;91.09
55271;BME280;41132;47.162;9.470;2023-02-17T06:55:06;97568.66;;;5.38;89.84
55271;BME280;41132;47.162;9.470;2023-02-17T06:57:32;97568.06;;;5.34;92.46
55271;BME280;41132;47.162;9.470;2023-02-17T06:59:57;97577.66;;;5.47;86.30
55271;BME280;41132;47.162;9.470;2023-02-17T07:02:22;97571.72;;;5.44;89.07
55271;BME280;41132;47.162;9.470;2023-02-17T07:04:48;97572.84;;;5.40;90.53
55271;BME280;41132;47.162;9.470;2023-02-17T07:07:13;97570.53;;;5.36;90.03
55271;BME280;41132;47.162;9.470;2023-02-17T07:09:39;97573.50;;;5.44;86.12
55271;BME280;41132;47.162;9.470;2023-02-17T07:12:05;97566.81;;;5.40;84.91
55271;BME280;41132;47.162;9.470;2023-02-17T07:14:32;97578.13;;;5.53;85.07
55271;BME280;41132;47.162;9.470;2023-02-17T07:16:58;97580.28;;;5.47;88.04
55271;BME280;41132;47.162;9.470;2023-02-17T07:19:24;97581.75;;;5.51;85.24
55271;BME280;41132;47.162;9.470;2023-02-17T07:21:49;97582.28;;;5.56;84.52
55271;BME280;41132;47.162;9.470;2023-02-17T07:24:14;97583.19;;;5.69;77.78
55271;BME280;41132;47.162;9.470;2023-02-17T07:26:40;97588.44;;;5.82;75.77
55271;BME280;41132;47.162;9.470;2023-02-17T07:29:06;97593.44;;;5.85;82.38
55271;BME280;41132;47.162;9.470;2023-02-17T07:31:32;97597.53;;;5.89;81.71
55271;BME280;41132;47.162;9.470;2023-02-17T07:33:59;97606.56;;;5.83;82.97
55271;BME280;41132;47.162;9.470;2023-02-17T07:36:24;97615.97;;;5.86;81.12
55271;BME280;41132;47.162;9.470;2023-02-17T07:38:50;97620.41;;;5.98;78.50
55271;BME280;41132;47.162;9.470;2023-02-17T07:41:18;97617.28;;;6.06;78.33
55271;BME280;41132;47.162;9.470;2023-02-17T07:43:47;97611.91;;;6.09;78.12
55271;BME280;41132;47.162;9.470;2023-02-17T07:46:12;97612.44;;;6.14;84.39
55271;BME280;41132;47.162;9.470;2023-02-17T07:48:38;97609.53;;;6.19;82.96
55271;BME280;41132;47.162;9.470;2023-02-17T07:51:09;97605.47;;;6.27;77.31
55271;BME280;41132;47.162;9.470;2023-02-17T07:53:36;97616.63;;;6.30;74.29
55271;BME280;41132;47.162;9.470;2023-02-17T07:56:07;97619.69;;;6.36;76.25
55271;BME280;41132;47.162;9.470;2023-02-17T07:58:34;97614.88;;;6.43;74.89
55271;BME280;41132;47.162;9.470;2023-02-17T08:01:29;97614.88;;;6.43;80.88
55271;BME280;41132;47.162;9.470;2023-02-17T08:03:55;97609.56;;;6.44;81.46
55271;BME280;41132;47.162;9.470;2023-02-17T08:06:22;97601.13;;;6.41;85.71
55271;BME280;41132;47.162;9.470;2023-02-17T08:08:49;97607.28;;;6.53;83.46
55271;BME280;41132;47.162;9.470;2023-02-17T08:11:34;97609.47;;;6.59;81.69
55271;BME280;41132;47.162;9.470;2023-02-17T08:14:23;97622.72;;;6.56;82.23
55271;BME280;41132;47.162;9.470;2023-02-17T08:16:49;97620.00;;;6.57;78.89
55271;BME280;41132;47.162;9.470;2023-02-17T08:19:14;97618.25;;;6.71;77.92
55271;BME280;41132;47.162;9.470;2023-02-17T08:21:40;97613.22;;;6.80;72.08
55271;BME280;41132;47.162;9.470;2023-02-17T08:24:05;97618.63;;;6.90;77.12
55271;BME280;41132;47.162;9.470;2023-02-17T08:26:30;97613.31;;;6.92;74.35
55271;BME280;41132;47.162;9.470;2023-02-17T08:28:56;97623.84;;;7.03;71.48
55271;BME280;41132;47.162;9.470;2023-02-17T08:31:26;97633.66;;;7.12;69.85
55271;BME280;41132;47.162;9.470;2023-02-17T08:33:53;97643.69;;;7.05;74.15
55271;BME280;41132;47.162;9.470;2023-02-17T08:36:19;97657.78;;;7.03;77.02
55271;BME280;41132;47.162;9.470;2023-02-17T08:38:47;97655.09;;;7.04;77.00
55271;BME280;41132;47.162;9.470;2023-02-17T08:41:24;97658.00;;;7.13;75.91
55271;BME280;41132;47.162;9.470;2023-02-17T08:43:50;97658.94;;;7.11;76.16
55271;BME280;41132;47.162;9.470;2023-02-17T08:46:17;97668.13;;;7.17;78.43
55271;BME280;41132;47.162;9.470;2023-02-17T08:48:43;97651.19;;;7.23;78.02
55271;BME280;41132;47.162;9.470;2023-02-17T08:51:15;97670.47;;;7.46;68.53
55271;BME280;41132;47.162;9.470;2023-02-17T08:53:42;97673.91;;;7.59;65.12
55271;BME280;41132;47.162;9.470;2023-02-17T08:56:08;97670.75;;;7.67;60.92
55271;BME280;41132;47.162;9.470;2023-02-17T08:58:34;97665.69;;;7.77;60.59
55271;BME280;41132;47.162;9.470;2023-02-17T09:00:59;97658.16;;;7.85;60.41
55271;BME280;41132;47.162;9.470;2023-02-17T09:03:25;97661.47;;;7.87;62.83
55271;BME280;41132;47.162;9.470;2023-02-17T09:08:24;97659.66;;;8.00;63.57
55271;BME280;41132;47.162;9.470;2023-02-17T09:10:50;97658.59;;;8.03;64.39
55271;BME280;41132;47.162;9.470;2023-02-17T09:13:16;97666.25;;;8.17;64.01
55271;BME280;41132;47.162;9.470;2023-02-17T09:15:42;97659.38;;;8.16;62.83
55271;BME280;41132;47.162;9.470;2023-02-17T09:18:08;97671.88;;;8.24;62.44
55271;BME280;41132;47.162;9.470;2023-02-17T09:20:35;97663.59;;;8.30;57.64
55271;BME280;41132;47.162;9.470;2023-02-17T09:23:00;97657.75;;;8.26;57.37
55271;BME280;41132;47.162;9.470;2023-02-17T09:25:26;97661.69;;;8.32;57.50
55271;BME280;41132;47.162;9.470;2023-02-17T09:27:51;97656.84;;;8.39;57.67
55271;BME280;41132;47.162;9.470;2023-02-17T09:30:17;97674.84;;;8.43;57.86
55271;BME280;41132;47.162;9.470;2023-02-17T09:32:43;97683.53;;;8.44;58.06
55271;BME280;41132;47.162;9.470;2023-02-17T09:35:13;97680.81;;;8.45;57.02
55271;BME280;41132;47.162;9.470;2023-02-17T09:37:39;97668.94;;;8.52;55.52
55271;BME280;41132;47.162;9.470;2023-02-17T09:40:06;97666.56;;;8.61;56.94
55271;BME280;41132;47.162;9.470;2023-02-17T09:42:35;97674.56;;;8.59;59.25
55271;BME280;41132;47.162;9.470;2023-02-17T09:45:11;97672.94;;;8.81;59.41
55271;BME280;41132;47.162;9.470;2023-02-17T09:48:09;97667.94;;;8.89;58.94
55271;BME280;41132;47.162;9.470;2023-02-17T09:50:46;97666.28;;;8.88;57.21
55271;BME280;41132;47.162;9.470;2023-02-17T09:53:21;97660.69;;;8.92;54.93
55271;BME280;41132;47.162;9.470;2023-02-17T09:55:51;97654.88;;;9.00;55.31
55271;BME280;41132;47.162;9.470;2023-02-17T09:58:27;97661.06;;;8.99;55.54
55271;BME280;41132;47.162;9.470;2023-02-17T10:00:59;97661.66;;;9.03;56.17
55271;BME280;41132;47.162;9.470;2023-02-17T10:03:44;97672.88;;;9.16;57.60
55271;BME280;41132;47.162;9.470;2023-02-17T10:06:38;97654.88;;;9.11;55.52
55271;BME280;41132;47.162;9.470;2023-02-17T10:09:16;97652.50;;;9.19;54.80
55271;BME280;41132;47.162;9.470;2023-02-17T10:14:28;97656.38;;;9.81;59.18
55271;BME280;41132;47.162;9.470;2023-02-17T10:17:02;97657.44;;;9.90;59.32
55271;BME280;41132;47.162;9.470;2023-02-17T10:19:31;97659.28;;;10.11;60.24
55271;BME280;41132;47.162;9.470;2023-02-17T10:22:10;97653.16;;;10.21;55.12
55271;BME280;41132;47.162;9.470;2023-02-17T10:24:37;97648.81;;;10.43;53.30
55271;BME280;41132;47.162;9.470;2023-02-17T10:27:18;97649.53;;;10.66;53.91
55271;BME280;41132;47.162;9.470;2023-02-17T10:32:40;97665.38;;;11.06;53.52
55271;BME280;41132;47.162;9.470;2023-02-17T10:42:59;97644.22;;;11.08;49.83
55271;BME280;41132;47.162;9.470;2023-02-17T10:45:30;97659.13;;;10.98;55.29
55271;BME280;41132;47.162;9.470;2023-02-17T10:48:15;97649.53;;;10.66;55.46
55271;BME280;41132;47.162;9.470;2023-02-17T10:50:43;97655.22;;;10.71;51.79
55271;BME280;41132;47.162;9.470;2023-02-17T10:58:22;97666.81;;;11.11;52.14
55271;BME280;41132;47.162;9.470;2023-02-17T11:00:52;97663.00;;;11.03;50.80
55271;BME280;41132;47.162;9.470;2023-02-17T11:03:27;97674.81;;;11.09;47.61
55271;BME280;41132;47.162;9.470;2023-02-17T11:05:56;97671.94;;;10.91;52.39
55271;BME280;41132;47.162;9.470;2023-02-17T11:13:38;97653.03;;;10.76;52.29
55271;BME280;41132;47.162;9.470;2023-02-17T11:16:04;97650.25;;;10.99;48.46
55271;BME280;41132;47.162;9.470;2023-02-17T11:18:32;97654.19;;;11.04;49.75
55271;BME280;41132;47.162;9.470;2023-02-17T11:21:01;97651.88;;;11.11;48.00
55271;BME280;41132;47.162;9.470;2023-02-17T11:23:27;97640.44;;;11.22;48.64
55271;BME280;41132;47.162;9.470;2023-02-17T11:26:01;97646.97;;;11.37;48.07
55271;BME280;41132;47.162;9.470;2023-02-17T11:28:27;97633.91;;;11.47;50.98
55271;BME280;41132;47.162;9.470;2023-02-17T11:30:55;97636.13;;;11.52;50.95
55271;BME280;41132;47.162;9.470;2023-02-17T11:33:29;97640.53;;;11.51;50.19
55271;BME280;41132;47.162;9.470;2023-02-17T11:35:55;97626.94;;;11.36;51.95
55271;BME280;41132;47.162;9.470;2023-02-17T11:38:27;97636.91;;;11.42;51.74
55271;BME280;41132;47.162;9.470;2023-02-17T11:41:04;97633.38;;;11.22;53.46
55271;BME280;41132;47.162;9.470;2023-02-17T11:43:33;97626.91;;;11.26;53.08
55271;BME280;41132;47.162;9.470;2023-02-17T11:54:30;97616.88;;;11.51;47.03
55271;BME280;41132;47.162;9.470;2023-02-17T12:08:03;97616.34;;;11.67;50.07
55271;BME280;41132;47.162;9.470;2023-02-17T12:13:42;97614.50;;;11.48;49.91
55271;BME280;41132;47.162;9.470;2023-02-17T12:22:05;97604.94;;;11.37;48.17
55271;BME280;41132;47.162;9.470;2023-02-17T12:24:57;97607.84;;;11.34;49.26
55271;BME280;41132;47.162;9.470;2023-02-17T12:28:04;97607.84;;;11.34;48.90
55271;BME280;41132;47.162;9.470;2023-02-17T12:30:54;97609.47;;;11.35;49.12
55271;BME280;41132;47.162;9.470;2023-02-17T12:36:34;97595.31;;;11.17;51.29
55271;BME280;41132;47.162;9.470;2023-02-17T12:39:10;97596.28;;;11.16;50.64
55271;BME280;41132;47.162;9.470;2023-02-17T12:41:46;97591.59;;;11.19;50.84
55271;BME280;41132;47.162;9.470;2023-02-17T12:44:14;97597.69;;;11.20;50.52
55271;BME280;41132;47.162;9.470;2023-02-17T12:46:46;97585.66;;;11.17;52.25
55271;BME280;41132;47.162;9.470;2023-02-17T12:49:18;97574.66;;;11.02;53.50
55271;BME280;41132;47.162;9.470;2023-02-17T12:51:54;97575.75;;;11.00;52.76
55271;BME280;41132;47.162;9.470;2023-02-17T12:54:37;97572.75;;;11.14;51.83
55271;BME280;41132;47.162;9.470;2023-02-17T12:59:36;97560.72;;;11.12;51.83
55271;BME280;41132;47.162;9.470;2023-02-17T13:02:13;97561.56;;;11.12;51.88
55271;BME280;41132;47.162;9.470;2023-02-17T13:04:41;97570.03;;;11.16;51.39
55271;BME280;41132;47.162;9.470;2023-02-17T13:07:19;97572.66;;;11.16;52.22
55271;BME280;41132;47.162;9.470;2023-02-17T13:09:47;97572.22;;;11.11;52.12
55271;BME280;41132;47.162;9.470;2023-02-17T13:26:22;97556.56;;;11.09;52.69
55271;BME280;41132;47.162;9.470;2023-02-17T13:31:55;97551.19;;;11.11;52.15
55271;BME280;41132;47.162;9.470;2023-02-17T13:34:37;97553.66;;;11.12;52.28
55271;BME280;41132;47.162;9.470;2023-02-17T13:42:34;97547.31;;;11.15;51.91
55271;BME280;41132;47.162;9.470;2023-02-17T13:45:00;97542.63;;;11.18;52.76
55271;BME280;41132;47.162;9.470;2023-02-17T13:47:33;97547.91;;;11.18;55.28
55271;BME280;41132;47.162;9.470;2023-02-17T13:49:59;97542.22;;;11.23;53.37
55271;BME280;41132;47.162;9.470;2023-02-17T13:52:29;97538.81;;;11.32;53.24
55271;BME280;41132;47.162;9.470;2023-02-17T15:17:51;97566.06;;;10.91;65.96
55271;BME280;41132;47.162;9.470;2023-02-17T15:20:17;97568.53;;;10.92;67.39
55271;BME280;41132;47.162;9.470;2023-02-17T15:22:42;97569.78;;;10.88;69.37
55271;BME280;41132;47.162;9.470;2023-02-17T15:25:16;97580.59;;;10.95;68.48
55271;BME280;41132;47.162;9.470;2023-02-17T15:27:43;97570.75;;;10.97;68.93
55271;BME280;41132;47.162;9.470;2023-02-17T15:30:15;97573.50;;;10.85;68.50
55271;BME280;41132;47.162;9.470;2023-02-17T15:32:40;97584.63;;;10.78;72.70
55271;BME280;41132;47.162;9.470;2023-02-17T15:35:19;97587.69;;;10.83;74.04
55271;BME280;41132;47.162;9.470;2023-02-17T15:37:45;97586.31;;;10.79;75.41
55271;BME280;41132;47.162;9.470;2023-02-17T15:40:19;97587.25;;;10.78;74.24
55271;BME280;41132;47.162;9.470;2023-02-17T15:42:45;97584.84;;;10.65;73.42
55271;BME280;41132;47.162;9.470;2023-02-17T15:52:55;97592.22;;;10.50;76.08
55271;BME280;41132;47.162;9.470;2023-02-17T15:55:20;97596.25;;;10.54;79.05
55271;BME280;41132;47.162;9.470;2023-02-17T15:57:53;97598.63;;;10.57;78.47
55271;BME280;41132;47.162;9.470;2023-02-17T16:00:20;97601.13;;;10.59;79.91
55271;BME280;41132;47.162;9.470;2023-02-17T16:02:46;97594.47;;;10.55;78.95
55271;BME280;41132;47.162;9.470;2023-02-17T16:05:14;97590.75;;;10.57;74.73
55271;BME280;41132;47.162;9.470;2023-02-17T16:07:40;97590.09;;;10.44;84.40
55271;BME280;41132;47.162;9.470;2023-02-17T16:25:36;97584.41;;;10.39;84.15
55271;BME280;41132;47.162;9.470;2023-02-17T16:28:02;97579.81;;;10.31;89.50
55271;BME280;41132;47.162;9.470;2023-02-17T16:33:02;97582.84;;;10.15;93.57
55271;BME280;41132;47.162;9.470;2023-02-17T16:35:30;97586.41;;;10.14;91.45
55271;BME280;41132;47.162;9.470;2023-02-17T16:38:21;97583.84;;;10.03;91.53
55271;BME280;41132;47.162;9.470;2023-02-17T16:40:47;97584.09;;;10.00;92.67
55271;BME280;41132;47.162;9.470;2023-02-17T16:43:18;97597.59;;;9.95;93.75
55271;BME280;41132;47.162;9.470;2023-02-17T16:45:55;97592.56;;;9.92;94.24
55271;BME280;41132;47.162;9.470;2023-02-17T16:48:23;97598.06;;;9.89;93.09
55271;BME280;41132;47.162;9.470;2023-02-17T16:50:49;97598.34;;;9.86;92.53
55271;BME280;41132;47.162;9.470;2023-02-17T16:53:14;97599.75;;;9.90;91.07
55271;BME280;41132;47.162;9.470;2023-02-17T16:55:40;97596.16;;;9.91;93.21
55271;BME280;41132;47.162;9.470;2023-02-17T16:58:17;97592.66;;;9.70;95.88
55271;BME280;41132;47.162;9.470;2023-02-17T17:00:44;97605.63;;;9.71;97.89
55271;BME280;41132;47.162;9.470;2023-02-17T17:03:10;97609.69;;;9.64;98.12